sensor_id;sensor_type;location;lat;lon;timestamp;pressure;altitude;pressure_sealevel;temperature;humidity
59391;BME280;53405;57.012;40.984;2023-11-18T00:00:16;100931.88;;;-6.36;77.98
59391;BME280;53405;57.012;40.984;2023-11-18T00:02:44;100959.81;;;-6.26;78.09
59391;BME280;53405;57.012;40.984;2023-11-18T00:05:13;100938.75;;;-6.36;77.83
59391;BME280;53405;57.012;40.984;2023-11-18T00:07:41;100955.59;;;-6.27;78.38
59391;BME280;53405;57.012;40.984;2023-11-18T00:10:10;100944.84;;;-6.40;78.23
59391;BME280;53405;57.012;40.984;2023-11-18T00:12:38;100940.88;;;-6.50;79.36
59391;BME280;53405;57.012;40.984;2023-11-18T00:15:09;100963.50;;;-6.35;78.88
59391;BME280;53405;57.012;40.984;2023-11-18T00:17:38;100957.59;;;-6.39;79.50
59391;BME280;53405;57.012;40.984;2023-11-18T00:20:07;100945.41;;;-6.59;79.72
59391;BME280;53405;57.012;40.984;2023-11-18T00:22:40;100974.25;;;-6.52;80.20
59391;BME280;53405;57.012;40.984;2023-11-18T00:25:09;100938.84;;;-6.69;80.03
59391;BME280;53405;57.012;40.984;2023-11-18T00:27:37;100963.13;;;-6.51;80.14
59391;BME280;53405;57.012;40.984;2023-11-18T00:30:05;100954.56;;;-6.51;79.84
59391;BME280;53405;57.012;40.984;2023-11-18T00:32:36;100965.25;;;-6.37;79.89
59391;BME280;53405;57.012;40.984;2023-11-18T00:35:04;100973.06;;;-6.42;80.08
59391;BME280;53405;57.012;40.984;2023-11-18T00:37:32;100976.22;;;-6.32;79.93
59391;BME280;53405;57.012;40.984;2023-11-18T00:40:03;100972.38;;;-6.47;80.15
59391;BME280;53405;57.012;40.984;2023-11-18T00:42:32;100981.41;;;-6.33;79.88
59391;BME280;53405;57.012;40.984;2023-11-18T00:45:01;100914.69;;;-6.60;80.00
59391;BME280;53405;57.012;40.984;2023-11-18T00:47:33;100907.31;;;-6.71;79.89
59391;BME280;53405;57.012;40.984;2023-11-18T00:50:01;100943.53;;;-6.54;80.41
59391;BME280;53405;57.012;40.984;2023-11-18T00:52:33;100982.84;;;-6.25;80.44
59391;BME280;53405;57.012;40.984;2023-11-18T00:55:01;100984.66;;;-6.28;80.56
59391;BME280;53405;57.012;40.984;2023-11-18T00:57:32;100960.00;;;-6.32;81.82
59391;BME280;53405;57.012;40.984;2023-11-18T01:00:00;100980.56;;;-6.06;80.74
59391;BME280;53405;57.012;40.984;2023-11-18T01:02:30;100984.47;;;-6.22;80.61
59391;BME280;53405;57.012;40.984;2023-11-18T01:04:58;100986.72;;;-6.11;80.27
59391;BME280;53405;57.012;40.984;2023-11-18T01:07:25;100962.31;;;-6.25;80.21
59391;BME280;53405;57.012;40.984;2023-11-18T01:09:53;100976.50;;;-6.13;79.34
59391;BME280;53405;57.012;40.984;2023-11-18T01:12:21;100978.63;;;-6.26;80.31
59391;BME280;53405;57.012;40.984;2023-11-18T01:14:49;100929.03;;;-6.55;80.34
59391;BME280;53405;57.012;40.984;2023-11-18T01:17:17;100940.19;;;-6.56;80.94
59391;BME280;53405;57.012;40.984;2023-11-18T01:19:44;100978.72;;;-6.29;80.77
59391;BME280;53405;57.012;40.984;2023-11-18T01:22:12;100978.16;;;-6.12;80.72
59391;BME280;53405;57.012;40.984;2023-11-18T01:24:40;100972.84;;;-6.06;79.94
59391;BME280;53405;57.012;40.984;2023-11-18T01:27:08;100947.03;;;-6.28;79.28
59391;BME280;53405;57.012;40.984;2023-11-18T01:29:39;100985.97;;;-6.15;80.19
59391;BME280;53405;57.012;40.984;2023-11-18T01:32:07;100986.25;;;-6.24;81.04
59391;BME280;53405;57.012;40.984;2023-11-18T01:34:39;100984.72;;;-6.30;81.17
59391;BME280;53405;57.012;40.984;2023-11-18T01:37:07;100936.28;;;-6.39;81.30
59391;BME280;53405;57.012;40.984;2023-11-18T01:39:36;100981.38;;;-6.04;81.02
59391;BME280;53405;57.012;40.984;2023-11-18T01:42:04;100969.69;;;-6.14;81.22
59391;BME280;53405;57.012;40.984;2023-11-18T01:44:32;100942.28;;;-6.40;81.11
59391;BME280;53405;57.012;40.984;2023-11-18T01:47:02;100954.03;;;-6.33;81.18
59391;BME280;53405;57.012;40.984;2023-11-18T01:49:35;100991.56;;;-6.02;81.33
59391;BME280;53405;57.012;40.984;2023-11-18T01:52:07;100959.19;;;-6.06;80.64
59391;BME280;53405;57.012;40.984;2023-11-18T01:54:38;100995.19;;;-5.83;79.84
59391;BME280;53405;57.012;40.984;2023-11-18T01:57:07;100993.00;;;-5.95;81.07
59391;BME280;53405;57.012;40.984;2023-11-18T01:59:37;100971.00;;;-6.01;81.67
59391;BME280;53405;57.012;40.984;2023-11-18T02:02:09;100986.88;;;-5.89;79.73
59391;BME280;53405;57.012;40.984;2023-11-18T02:04:39;100975.31;;;-6.03;81.15
59391;BME280;53405;57.012;40.984;2023-11-18T02:07:09;100980.50;;;-6.04;81.48
59391;BME280;53405;57.012;40.984;2023-11-18T02:09:42;100996.56;;;-5.72;82.66
59391;BME280;53405;57.012;40.984;2023-11-18T02:15:17;100984.84;;;-5.79;81.43
59391;BME280;53405;57.012;40.984;2023-11-18T02:17:46;100994.78;;;-5.69;81.64
59391;BME280;53405;57.012;40.984;2023-11-18T02:20:16;100939.50;;;-6.06;81.72
59391;BME280;53405;57.012;40.984;2023-11-18T02:22:48;100968.56;;;-5.78;80.72
59391;BME280;53405;57.012;40.984;2023-11-18T02:25:18;100978.59;;;-5.72;81.18
59391;BME280;53405;57.012;40.984;2023-11-18T02:27:46;100985.13;;;-5.62;81.81
59391;BME280;53405;57.012;40.984;2023-11-18T02:30:17;101000.38;;;-5.84;81.66
59391;BME280;53405;57.012;40.984;2023-11-18T02:35:38;100999.00;;;-5.68;81.36
59391;BME280;53405;57.012;40.984;2023-11-18T02:38:08;101003.78;;;-5.84;81.63
59391;BME280;53405;57.012;40.984;2023-11-18T02:40:40;100979.94;;;-6.14;82.11
59391;BME280;53405;57.012;40.984;2023-11-18T02:43:11;100965.69;;;-6.23;82.64
59391;BME280;53405;57.012;40.984;2023-11-18T02:45:39;100979.31;;;-6.21;83.64
59391;BME280;53405;57.012;40.984;2023-11-18T02:48:09;100986.44;;;-6.02;83.41
59391;BME280;53405;57.012;40.984;2023-11-18T02:50:37;100961.72;;;-6.05;82.57
59391;BME280;53405;57.012;40.984;2023-11-18T02:53:05;100984.56;;;-6.25;83.14
59391;BME280;53405;57.012;40.984;2023-11-18T02:55:33;100977.84;;;-6.29;83.90
59391;BME280;53405;57.012;40.984;2023-11-18T02:58:01;100983.94;;;-6.32;84.29
59391;BME280;53405;57.012;40.984;2023-11-18T03:00:31;100984.81;;;-6.33;84.83
59391;BME280;53405;57.012;40.984;2023-11-18T03:03:00;100993.31;;;-6.04;84.11
59391;BME280;53405;57.012;40.984;2023-11-18T03:05:28;100995.78;;;-6.29;83.76
59391;BME280;53405;57.012;40.984;2023-11-18T03:07:57;100991.13;;;-6.17;84.37
59391;BME280;53405;57.012;40.984;2023-11-18T03:10:25;100989.09;;;-6.33;83.76
59391;BME280;53405;57.012;40.984;2023-11-18T03:12:54;100981.94;;;-6.52;83.96
59391;BME280;53405;57.012;40.984;2023-11-18T03:15:22;100975.66;;;-6.72;83.13
59391;BME280;53405;57.012;40.984;2023-11-18T03:17:51;100983.72;;;-6.54;83.41
59391;BME280;53405;57.012;40.984;2023-11-18T03:20:22;100980.88;;;-6.75;83.48
59391;BME280;53405;57.012;40.984;2023-11-18T03:22:51;100980.84;;;-7.04;83.73
59391;BME280;53405;57.012;40.984;2023-11-18T03:25:20;100989.28;;;-7.01;85.27
59391;BME280;53405;57.012;40.984;2023-11-18T03:27:51;100994.72;;;-6.82;85.99
59391;BME280;53405;57.012;40.984;2023-11-18T03:30:22;100983.06;;;-6.62;85.23
59391;BME280;53405;57.012;40.984;2023-11-18T03:32:49;100998.56;;;-6.67;84.60
59391;BME280;53405;57.012;40.984;2023-11-18T03:35:18;100986.78;;;-6.73;84.19
59391;BME280;53405;57.012;40.984;2023-11-18T03:37:46;100993.91;;;-6.82;83.33
59391;BME280;53405;57.012;40.984;2023-11-18T03:40:14;100988.41;;;-7.00;85.36
59391;BME280;53405;57.012;40.984;2023-11-18T03:42:42;100988.81;;;-7.15;85.31
59391;BME280;53405;57.012;40.984;2023-11-18T03:45:09;100987.63;;;-7.03;85.97
59391;BME280;53405;57.012;40.984;2023-11-18T03:47:38;100987.22;;;-6.88;85.31
59391;BME280;53405;57.012;40.984;2023-11-18T03:50:07;100986.13;;;-6.79;85.21
59391;BME280;53405;57.012;40.984;2023-11-18T03:52:39;100967.13;;;-7.03;84.66
59391;BME280;53405;57.012;40.984;2023-11-18T03:55:08;100944.19;;;-7.39;84.70
59391;BME280;53405;57.012;40.984;2023-11-18T03:57:36;100982.06;;;-7.19;85.58
59391;BME280;53405;57.012;40.984;2023-11-18T04:00:04;100988.44;;;-7.01;85.52
59391;BME280;53405;57.012;40.984;2023-11-18T04:02:37;100959.59;;;-7.41;83.98
59391;BME280;53405;57.012;40.984;2023-11-18T04:05:06;100986.41;;;-7.21;85.57
59391;BME280;53405;57.012;40.984;2023-11-18T04:07:35;100983.69;;;-7.15;84.79
59391;BME280;53405;57.012;40.984;2023-11-18T04:10:03;100983.88;;;-7.23;85.58
59391;BME280;53405;57.012;40.984;2023-11-18T04:12:34;100982.16;;;-7.22;86.02
59391;BME280;53405;57.012;40.984;2023-11-18T04:15:02;100986.31;;;-7.18;86.39
59391;BME280;53405;57.012;40.984;2023-11-18T04:17:31;100932.84;;;-7.29;85.54
59391;BME280;53405;57.012;40.984;2023-11-18T04:19:59;100935.75;;;-7.43;86.54
59391;BME280;53405;57.012;40.984;2023-11-18T04:22:29;100982.97;;;-7.55;86.31
59391;BME280;53405;57.012;40.984;2023-11-18T04:24:57;100976.13;;;-7.54;86.91
59391;BME280;53405;57.012;40.984;2023-11-18T04:27:25;100974.94;;;-7.41;86.22
59391;BME280;53405;57.012;40.984;2023-11-18T04:29:52;100991.06;;;-7.37;85.61
59391;BME280;53405;57.012;40.984;2023-11-18T04:32:20;100984.72;;;-7.22;86.68
59391;BME280;53405;57.012;40.984;2023-11-18T04:34:47;100974.22;;;-7.13;86.76
59391;BME280;53405;57.012;40.984;2023-11-18T04:37:18;100982.34;;;-7.30;85.34
59391;BME280;53405;57.012;40.984;2023-11-18T04:39:47;100977.94;;;-7.23;85.33
59391;BME280;53405;57.012;40.984;2023-11-18T04:42:14;100976.59;;;-7.05;85.60
59391;BME280;53405;57.012;40.984;2023-11-18T04:44:43;100980.69;;;-6.98;84.33
59391;BME280;53405;57.012;40.984;2023-11-18T04:47:11;100979.72;;;-7.27;85.38
59391;BME280;53405;57.012;40.984;2023-11-18T04:49:39;100967.72;;;-7.25;86.45
59391;BME280;53405;57.012;40.984;2023-11-18T04:52:06;100974.22;;;-7.13;85.91
59391;BME280;53405;57.012;40.984;2023-11-18T04:54:34;100950.41;;;-7.48;85.17
59391;BME280;53405;57.012;40.984;2023-11-18T04:57:03;100977.66;;;-7.46;85.26
59391;BME280;53405;57.012;40.984;2023-11-18T04:59:30;100980.75;;;-7.34;86.22
59391;BME280;53405;57.012;40.984;2023-11-18T05:01:58;100988.28;;;-7.28;86.04
59391;BME280;53405;57.012;40.984;2023-11-18T05:04:26;100973.69;;;-7.24;84.79
59391;BME280;53405;57.012;40.984;2023-11-18T05:06:53;100988.16;;;-7.23;84.41
59391;BME280;53405;57.012;40.984;2023-11-18T05:09:21;100984.13;;;-7.32;85.10
59391;BME280;53405;57.012;40.984;2023-11-18T05:11:50;100992.44;;;-7.58;84.96
59391;BME280;53405;57.012;40.984;2023-11-18T05:14:18;100995.84;;;-7.58;86.18
59391;BME280;53405;57.012;40.984;2023-11-18T05:16:46;100989.88;;;-7.58;86.12
59391;BME280;53405;57.012;40.984;2023-11-18T05:19:14;100934.53;;;-7.97;85.76
59391;BME280;53405;57.012;40.984;2023-11-18T05:21:42;100996.09;;;-7.33;85.04
59391;BME280;53405;57.012;40.984;2023-11-18T05:24:09;100978.63;;;-7.51;84.25
59391;BME280;53405;57.012;40.984;2023-11-18T05:26:37;100985.75;;;-7.64;84.62
59391;BME280;53405;57.012;40.984;2023-11-18T05:29:06;100993.44;;;-7.64;84.47
59391;BME280;53405;57.012;40.984;2023-11-18T05:31:34;100989.25;;;-7.68;84.27
59391;BME280;53405;57.012;40.984;2023-11-18T05:34:01;100987.38;;;-7.62;84.76
59391;BME280;53405;57.012;40.984;2023-11-18T05:36:30;100991.50;;;-7.54;84.93
59391;BME280;53405;57.012;40.984;2023-11-18T05:39:04;100991.06;;;-7.37;84.72
59391;BME280;53405;57.012;40.984;2023-11-18T05:41:38;101000.16;;;-7.60;84.09
59391;BME280;53405;57.012;40.984;2023-11-18T05:44:07;100948.06;;;-7.92;85.51
59391;BME280;53405;57.012;40.984;2023-11-18T05:46:45;100961.75;;;-7.93;84.40
59391;BME280;53405;57.012;40.984;2023-11-18T05:49:19;101009.22;;;-7.47;84.93
59391;BME280;53405;57.012;40.984;2023-11-18T05:51:50;100979.25;;;-7.77;84.94
59391;BME280;53405;57.012;40.984;2023-11-18T05:54:19;101009.94;;;-7.41;84.89
59391;BME280;53405;57.012;40.984;2023-11-18T05:56:46;101002.38;;;-7.46;84.08
59391;BME280;53405;57.012;40.984;2023-11-18T05:59:14;101019.34;;;-7.42;83.48
59391;BME280;53405;57.012;40.984;2023-11-18T06:01:42;101003.78;;;-7.69;85.30
59391;BME280;53405;57.012;40.984;2023-11-18T06:04:09;100988.50;;;-7.72;84.69
59391;BME280;53405;57.012;40.984;2023-11-18T06:06:37;101002.72;;;-7.96;84.59
59391;BME280;53405;57.012;40.984;2023-11-18T06:09:05;100996.41;;;-7.81;85.53
59391;BME280;53405;57.012;40.984;2023-11-18T06:11:37;101006.44;;;-7.37;83.99
59391;BME280;53405;57.012;40.984;2023-11-18T06:14:08;101011.59;;;-7.06;84.43
59391;BME280;53405;57.012;40.984;2023-11-18T06:16:36;101003.66;;;-6.95;83.72
59391;BME280;53405;57.012;40.984;2023-11-18T06:19:06;101009.88;;;-7.05;82.31
59391;BME280;53405;57.012;40.984;2023-11-18T06:21:33;100972.53;;;-7.46;83.00
59391;BME280;53405;57.012;40.984;2023-11-18T06:24:02;101024.66;;;-7.15;81.79
59391;BME280;53405;57.012;40.984;2023-11-18T06:26:33;101009.84;;;-7.04;81.92
59391;BME280;53405;57.012;40.984;2023-11-18T06:29:03;101012.41;;;-7.04;82.62
59391;BME280;53405;57.012;40.984;2023-11-18T06:31:34;100985.66;;;-7.25;81.57
59391;BME280;53405;57.012;40.984;2023-11-18T06:34:02;101021.19;;;-6.81;81.52
59391;BME280;53405;57.012;40.984;2023-11-18T06:36:31;101018.56;;;-6.80;81.88
59391;BME280;53405;57.012;40.984;2023-11-18T06:38:59;101025.06;;;-6.66;81.18
59391;BME280;53405;57.012;40.984;2023-11-18T06:41:27;100989.88;;;-6.61;80.60
59391;BME280;53405;57.012;40.984;2023-11-18T06:44:02;101003.47;;;-6.59;79.07
59391;BME280;53405;57.012;40.984;2023-11-18T06:46:41;100970.97;;;-6.87;79.39
59391;BME280;53405;57.012;40.984;2023-11-18T06:49:09;101018.25;;;-6.67;80.43
59391;BME280;53405;57.012;40.984;2023-11-18T06:51:43;101021.13;;;-6.48;80.11
59391;BME280;53405;57.012;40.984;2023-11-18T06:54:10;101026.38;;;-6.53;81.80
59391;BME280;53405;57.012;40.984;2023-11-18T06:56:41;101021.81;;;-6.43;80.82
59391;BME280;53405;57.012;40.984;2023-11-18T06:59:13;101022.72;;;-6.44;81.50
59391;BME280;53405;57.012;40.984;2023-11-18T07:01:41;101004.09;;;-6.21;80.92
59391;BME280;53405;57.012;40.984;2023-11-18T07:04:12;101025.06;;;-6.37;79.10
59391;BME280;53405;57.012;40.984;2023-11-18T07:06:41;101024.81;;;-6.27;80.11
59391;BME280;53405;57.012;40.984;2023-11-18T07:09:10;101019.94;;;-6.37;80.99
59391;BME280;53405;57.012;40.984;2023-11-18T07:11:45;100979.03;;;-6.40;81.10
59391;BME280;53405;57.012;40.984;2023-11-18T07:14:14;100993.09;;;-6.55;81.21
59391;BME280;53405;57.012;40.984;2023-11-18T07:16:43;101037.13;;;-6.40;82.43
59391;BME280;53405;57.012;40.984;2023-11-18T07:19:11;101028.50;;;-6.38;81.23
59391;BME280;53405;57.012;40.984;2023-11-18T07:21:48;101026.50;;;-6.58;82.16
59391;BME280;53405;57.012;40.984;2023-11-18T07:24:17;101023.47;;;-6.41;83.57
59391;BME280;53405;57.012;40.984;2023-11-18T07:26:45;101028.94;;;-5.95;82.23
59391;BME280;53405;57.012;40.984;2023-11-18T07:29:19;100995.84;;;-6.03;81.08
59391;BME280;53405;57.012;40.984;2023-11-18T07:31:48;100956.00;;;-6.13;79.50
59391;BME280;53405;57.012;40.984;2023-11-18T07:34:17;101031.81;;;-5.77;80.51
59391;BME280;53405;57.012;40.984;2023-11-18T07:36:44;101022.34;;;-5.75;82.06
59391;BME280;53405;57.012;40.984;2023-11-18T07:39:14;101027.28;;;-5.42;80.25
59391;BME280;53405;57.012;40.984;2023-11-18T07:41:51;100995.09;;;-5.79;81.52
59391;BME280;53405;57.012;40.984;2023-11-18T07:44:26;101033.50;;;-5.50;81.63
59391;BME280;53405;57.012;40.984;2023-11-18T07:46:54;101040.03;;;-5.14;81.06
59391;BME280;53405;57.012;40.984;2023-11-18T07:49:21;101042.31;;;-4.56;79.46
59391;BME280;53405;57.012;40.984;2023-11-18T07:51:53;101015.28;;;-4.66;78.97
59391;BME280;53405;57.012;40.984;2023-11-18T07:54:22;101026.81;;;-4.31;78.58
59391;BME280;53405;57.012;40.984;2023-11-18T07:56:51;101014.19;;;-4.61;78.42
59391;BME280;53405;57.012;40.984;2023-11-18T07:59:20;101041.91;;;-3.98;77.49
59391;BME280;53405;57.012;40.984;2023-11-18T08:01:48;101036.28;;;-3.64;75.95
59391;BME280;53405;57.012;40.984;2023-11-18T08:04:16;101036.06;;;-3.16;73.29
59391;BME280;53405;57.012;40.984;2023-11-18T08:06:44;101032.91;;;-2.82;73.42
59391;BME280;53405;57.012;40.984;2023-11-18T08:09:12;101017.22;;;-2.77;73.17
59391;BME280;53405;57.012;40.984;2023-11-18T08:11:41;101027.22;;;-2.50;71.12
59391;BME280;53405;57.012;40.984;2023-11-18T08:14:09;100988.84;;;-3.17;73.67
59391;BME280;53405;57.012;40.984;2023-11-18T08:16:37;100985.03;;;-3.08;73.35
59391;BME280;53405;57.012;40.984;2023-11-18T08:19:05;100990.94;;;-3.06;74.76
59391;BME280;53405;57.012;40.984;2023-11-18T08:21:35;100987.22;;;-3.60;74.57
59391;BME280;53405;57.012;40.984;2023-11-18T08:24:06;101029.50;;;-3.88;76.18
59391;BME280;53405;57.012;40.984;2023-11-18T08:26:38;101013.34;;;-4.14;77.19
59391;BME280;53405;57.012;40.984;2023-11-18T08:29:06;101021.13;;;-3.93;77.85
59391;BME280;53405;57.012;40.984;2023-11-18T08:31:35;101019.63;;;-3.77;78.17
59391;BME280;53405;57.012;40.984;2023-11-18T08:34:03;101017.97;;;-3.78;77.34
59391;BME280;53405;57.012;40.984;2023-11-18T08:36:32;101015.78;;;-3.67;77.36
59391;BME280;53405;57.012;40.984;2023-11-18T08:39:01;101021.41;;;-4.01;76.62
59391;BME280;53405;57.012;40.984;2023-11-18T08:41:28;101021.78;;;-4.10;77.52
59391;BME280;53405;57.012;40.984;2023-11-18T08:43:58;101013.34;;;-3.92;78.62
59391;BME280;53405;57.012;40.984;2023-11-18T08:46:31;100995.31;;;-3.92;79.75
59391;BME280;53405;57.012;40.984;2023-11-18T08:48:59;101010.34;;;-3.59;77.06
59391;BME280;53405;57.012;40.984;2023-11-18T08:51:33;101016.63;;;-3.88;74.60
59391;BME280;53405;57.012;40.984;2023-11-18T08:54:01;101005.09;;;-4.22;77.72
59391;BME280;53405;57.012;40.984;2023-11-18T08:56:29;100974.13;;;-4.43;78.78
59391;BME280;53405;57.012;40.984;2023-11-18T08:59:02;101012.19;;;-4.07;77.49
59391;BME280;53405;57.012;40.984;2023-11-18T09:01:30;101018.09;;;-3.38;75.68
59391;BME280;53405;57.012;40.984;2023-11-18T09:03:59;101012.78;;;-3.56;75.92
59391;BME280;53405;57.012;40.984;2023-11-18T09:06:28;101006.47;;;-3.49;74.96
59391;BME280;53405;57.012;40.984;2023-11-18T09:08:56;100967.78;;;-3.90;74.93
59391;BME280;53405;57.012;40.984;2023-11-18T09:11:25;101010.91;;;-3.52;75.01
59391;BME280;53405;57.012;40.984;2023-11-18T09:13:56;101009.31;;;-3.77;76.67
59391;BME280;53405;57.012;40.984;2023-11-18T09:16:28;101006.34;;;-3.25;75.87
59391;BME280;53405;57.012;40.984;2023-11-18T09:19:00;101001.69;;;-3.36;75.14
59391;BME280;53405;57.012;40.984;2023-11-18T09:21:30;101008.69;;;-3.19;73.66
59391;BME280;53405;57.012;40.984;2023-11-18T09:24:03;100997.78;;;-3.46;73.71
59391;BME280;53405;57.012;40.984;2023-11-18T09:26:33;101013.34;;;-3.70;73.69
59391;BME280;53405;57.012;40.984;2023-11-18T09:29:01;101000.25;;;-3.86;74.54
59391;BME280;53405;57.012;40.984;2023-11-18T09:31:31;101008.59;;;-3.58;74.58
59391;BME280;53405;57.012;40.984;2023-11-18T09:34:00;100985.34;;;-3.57;71.86
59391;BME280;53405;57.012;40.984;2023-11-18T09:36:28;101009.97;;;-3.50;72.18
59391;BME280;53405;57.012;40.984;2023-11-18T09:38:56;100961.91;;;-3.71;73.23
59391;BME280;53405;57.012;40.984;2023-11-18T09:41:24;101008.59;;;-3.38;72.47
59391;BME280;53405;57.012;40.984;2023-11-18T09:43:54;100969.47;;;-3.46;71.64
59391;BME280;53405;57.012;40.984;2023-11-18T09:46:27;101008.34;;;-3.11;73.03
59391;BME280;53405;57.012;40.984;2023-11-18T09:51:46;100976.47;;;-3.29;70.26
59391;BME280;53405;57.012;40.984;2023-11-18T09:57:34;101004.66;;;-2.85;70.10
59391;BME280;53405;57.012;40.984;2023-11-18T10:00:08;100980.94;;;-3.12;69.75
59391;BME280;53405;57.012;40.984;2023-11-18T10:02:48;101004.19;;;-3.14;71.04
59391;BME280;53405;57.012;40.984;2023-11-18T10:05:19;101001.69;;;-3.36;69.63
59391;BME280;53405;57.012;40.984;2023-11-18T10:07:53;101016.91;;;-3.11;70.63
59391;BME280;53405;57.012;40.984;2023-11-18T10:10:22;101007.13;;;-2.82;69.96
59391;BME280;53405;57.012;40.984;2023-11-18T10:12:51;100960.69;;;-3.01;70.87
59391;BME280;53405;57.012;40.984;2023-11-18T10:15:26;100995.94;;;-2.43;67.28
59391;BME280;53405;57.012;40.984;2023-11-18T10:17:54;100983.84;;;-2.42;68.57
59391;BME280;53405;57.012;40.984;2023-11-18T10:23:16;101010.69;;;-2.46;65.38
59391;BME280;53405;57.012;40.984;2023-11-18T10:25:55;101009.25;;;-2.33;64.07
59391;BME280;53405;57.012;40.984;2023-11-18T10:28:35;100997.50;;;-2.78;65.86
59391;BME280;53405;57.012;40.984;2023-11-18T10:31:07;101008.47;;;-2.35;68.67
59391;BME280;53405;57.012;40.984;2023-11-18T10:33:39;100973.00;;;-2.49;66.28
59391;BME280;53405;57.012;40.984;2023-11-18T10:36:21;100959.88;;;-2.44;67.32
59391;BME280;53405;57.012;40.984;2023-11-18T10:38:52;100998.13;;;-2.35;67.71
59391;BME280;53405;57.012;40.984;2023-11-18T10:41:23;100966.00;;;-2.47;67.18
59391;BME280;53405;57.012;40.984;2023-11-18T10:44:07;100999.28;;;-2.41;66.82
59391;BME280;53405;57.012;40.984;2023-11-18T10:46:50;100998.56;;;-2.44;67.33
59391;BME280;53405;57.012;40.984;2023-11-18T10:49:20;100977.97;;;-2.08;65.01
59391;BME280;53405;57.012;40.984;2023-11-18T10:51:51;100998.91;;;-2.14;63.11
59391;BME280;53405;57.012;40.984;2023-11-18T10:54:18;100995.53;;;-1.97;66.82
59391;BME280;53405;57.012;40.984;2023-11-18T10:59:16;101005.72;;;-2.13;62.90
59391;BME280;53405;57.012;40.984;2023-11-18T11:01:44;100987.81;;;-2.54;67.00
59391;BME280;53405;57.012;40.984;2023-11-18T11:04:12;101008.38;;;-2.33;65.10
59391;BME280;53405;57.012;40.984;2023-11-18T11:06:45;101012.03;;;-2.19;65.91
59391;BME280;53405;57.012;40.984;2023-11-18T11:09:24;100997.00;;;-1.74;65.98
59391;BME280;53405;57.012;40.984;2023-11-18T11:11:56;100976.72;;;-1.82;67.27
59391;BME280;53405;57.012;40.984;2023-11-18T11:14:35;101004.81;;;-1.75;64.30
59391;BME280;53405;57.012;40.984;2023-11-18T11:17:13;100969.97;;;-1.67;62.24
59391;BME280;53405;57.012;40.984;2023-11-18T11:20:05;100994.50;;;-1.58;63.38
59391;BME280;53405;57.012;40.984;2023-11-18T11:26:07;101003.84;;;-1.73;61.44
59391;BME280;53405;57.012;40.984;2023-11-18T11:31:40;100987.69;;;-1.59;61.76
59391;BME280;53405;57.012;40.984;2023-11-18T11:34:19;100980.13;;;-1.98;62.42
59391;BME280;53405;57.012;40.984;2023-11-18T11:36:48;100982.28;;;-2.08;64.92
59391;BME280;53405;57.012;40.984;2023-11-18T11:39:19;101000.25;;;-1.88;62.36
59391;BME280;53405;57.012;40.984;2023-11-18T11:41:53;100978.13;;;-2.11;61.00
59391;BME280;53405;57.012;40.984;2023-11-18T11:44:24;101000.78;;;-2.37;63.36
59391;BME280;53405;57.012;40.984;2023-11-18T11:47:00;100995.75;;;-2.02;62.79
59391;BME280;53405;57.012;40.984;2023-11-18T11:49:36;100989.06;;;-2.06;64.11
59391;BME280;53405;57.012;40.984;2023-11-18T11:52:19;100967.09;;;-2.33;63.59
59391;BME280;53405;57.012;40.984;2023-11-18T11:54:56;100974.31;;;-2.04;64.82
59391;BME280;53405;57.012;40.984;2023-11-18T11:57:32;101004.69;;;-1.72;64.08
59391;BME280;53405;57.012;40.984;2023-11-18T12:00:04;100999.25;;;-2.22;60.36
59391;BME280;53405;57.012;40.984;2023-11-18T12:02:53;101003.28;;;-2.35;64.24
59391;BME280;53405;57.012;40.984;2023-11-18T12:05:24;100997.44;;;-2.39;61.23
59391;BME280;53405;57.012;40.984;2023-11-18T12:07:55;100989.28;;;-2.29;62.00
59391;BME280;53405;57.012;40.984;2023-11-18T12:10:27;100956.50;;;-2.27;61.56
59391;BME280;53405;57.012;40.984;2023-11-18T12:15:52;100991.19;;;-2.33;61.97
59391;BME280;53405;57.012;40.984;2023-11-18T12:18:31;101001.56;;;-2.34;62.43
59391;BME280;53405;57.012;40.984;2023-11-18T12:21:04;101009.19;;;-2.31;63.27
59391;BME280;53405;57.012;40.984;2023-11-18T12:23:32;101008.19;;;-2.48;64.13
59391;BME280;53405;57.012;40.984;2023-11-18T12:26:01;100980.53;;;-2.63;62.52
59391;BME280;53405;57.012;40.984;2023-11-18T12:28:31;101007.56;;;-2.34;61.62
59391;BME280;53405;57.012;40.984;2023-11-18T12:31:03;101006.59;;;-2.50;62.49
59391;BME280;53405;57.012;40.984;2023-11-18T12:34:02;100974.34;;;-2.80;61.46
59391;BME280;53405;57.012;40.984;2023-11-18T12:36:48;100987.13;;;-2.58;61.30
59391;BME280;53405;57.012;40.984;2023-11-18T12:43:00;101009.38;;;-2.95;63.11
59391;BME280;53405;57.012;40.984;2023-11-18T12:48:43;101013.81;;;-3.19;65.07
59391;BME280;53405;57.012;40.984;2023-11-18T12:51:10;100988.84;;;-3.37;64.42
59391;BME280;53405;57.012;40.984;2023-11-18T12:53:50;101001.88;;;-3.20;69.03
59391;BME280;53405;57.012;40.984;2023-11-18T12:56:19;101018.97;;;-3.39;68.75
59391;BME280;53405;57.012;40.984;2023-11-18T12:58:47;100997.84;;;-3.48;68.44
59391;BME280;53405;57.012;40.984;2023-11-18T13:01:15;101028.69;;;-3.46;66.09
59391;BME280;53405;57.012;40.984;2023-11-18T13:03:43;101013.75;;;-3.38;69.18
59391;BME280;53405;57.012;40.984;2023-11-18T13:06:11;101030.13;;;-2.98;69.48
59391;BME280;53405;57.012;40.984;2023-11-18T13:08:43;101036.31;;;-2.81;68.53
59391;BME280;53405;57.012;40.984;2023-11-18T13:11:11;101014.75;;;-3.20;67.91
59391;BME280;53405;57.012;40.984;2023-11-18T13:13:43;101032.91;;;-3.02;66.95
59391;BME280;53405;57.012;40.984;2023-11-18T13:16:12;101031.28;;;-3.25;68.25
59391;BME280;53405;57.012;40.984;2023-11-18T13:18:43;101028.72;;;-3.25;70.78
59391;BME280;53405;57.012;40.984;2023-11-18T13:21:19;101021.97;;;-3.50;70.57
59391;BME280;53405;57.012;40.984;2023-11-18T13:23:48;101018.28;;;-3.43;67.70
59391;BME280;53405;57.012;40.984;2023-11-18T13:26:19;101029.94;;;-3.56;67.17
59391;BME280;53405;57.012;40.984;2023-11-18T13:28:47;100996.78;;;-3.85;71.19